Ronald, Washington
Current Conditions -  °F | °C
As of 3:53 PM on Tuesday 25 Nov 2014 (Local Time) from KELN Reporting Station
Overcast Overcast  
Wind Chill: 36°   Ceiling: 1900
Heat Index: 43°   Visibility: 10mi
Dew Point: 36°   Wind: 13mph
Humidity: 76%   Direction: 120°ESE
Pressure: 30.19"   Gusts: NA
Location:  47.23°N, 121.01°W
Report Text: KELN 252353Z AUTO 12011KT 10SM OVC019 06/02 A3019 RMK AO2 SLP231 60011 T00610022 10100 20061 51009
Loading
Personal Weather Stations






























Interactive Weather Map New forecast layout! Learn more

10-Day Weather Forecast

Advertisements
Track Severe Weather on mobile